sensor_id;sensor_type;location;lat;lon;timestamp;pressure;altitude;pressure_sealevel;temperature;humidity
73306;BME280;61530;51.158;0.880;2023-05-07T00:00:39;1011.4;;;13.0625;36.1843
73306;BME280;61530;51.158;0.880;2023-05-07T00:01:43;1011.4;;;13.0625;35.8631
73306;BME280;61530;51.158;0.880;2023-05-07T00:02:47;1011.42;;;13.0625;36.2257
73306;BME280;61530;51.158;0.880;2023-05-07T00:03:50;1011.4;;;13.125;35.7992
73306;BME280;61530;51.158;0.880;2023-05-07T00:04:55;1011.39;;;13.125;34.7183
73306;BME280;61530;51.158;0.880;2023-05-07T00:05:59;1011.39;;;13.0625;36.2549
73306;BME280;61530;51.158;0.880;2023-05-07T00:07:03;1011.4;;;13.125;36.2371
73306;BME280;61530;51.158;0.880;2023-05-07T00:08:06;1011.37;;;13.0625;36.3705
73306;BME280;61530;51.158;0.880;2023-05-07T00:09:11;1011.39;;;12.9375;36.1433
73306;BME280;61530;51.158;0.880;2023-05-07T00:10:15;1011.37;;;13.0;35.8344
73306;BME280;61530;51.158;0.880;2023-05-07T00:11:18;1011.36;;;12.9375;36.0549
73306;BME280;61530;51.158;0.880;2023-05-07T00:12:22;1011.37;;;13.0;34.9078
73306;BME280;61530;51.158;0.880;2023-05-07T00:13:27;1011.37;;;12.9375;35.9926
73306;BME280;61530;51.158;0.880;2023-05-07T00:14:31;1011.44;;;13.0;36.4145
73306;BME280;61530;51.158;0.880;2023-05-07T00:15:34;1011.37;;;12.9375;36.9863
73306;BME280;61530;51.158;0.880;2023-05-07T00:16:38;1011.36;;;12.9375;36.781
73306;BME280;61530;51.158;0.880;2023-05-07T00:17:43;1011.35;;;12.875;36.6234
73306;BME280;61530;51.158;0.880;2023-05-07T00:18:47;1011.38;;;12.8125;37.4033
73306;BME280;61530;51.158;0.880;2023-05-07T00:19:50;1011.4;;;12.875;36.5305
73306;BME280;61530;51.158;0.880;2023-05-07T00:20:54;1011.34;;;12.8125;36.3601
73306;BME280;61530;51.158;0.880;2023-05-07T00:21:59;1011.35;;;12.9375;37.3516
73306;BME280;61530;51.158;0.880;2023-05-07T00:23:03;1011.32;;;12.875;36.7627
73306;BME280;61530;51.158;0.880;2023-05-07T00:24:07;1011.31;;;12.9375;36.1842
73306;BME280;61530;51.158;0.880;2023-05-07T00:25:10;1011.3;;;12.9375;36.5339
73306;BME280;61530;51.158;0.880;2023-05-07T00:26:16;1011.27;;;12.875;36.3364
73306;BME280;61530;51.158;0.880;2023-05-07T00:27:19;1011.28;;;12.9375;36.7281
73306;BME280;61530;51.158;0.880;2023-05-07T00:28:22;1011.29;;;12.9375;37.5253
73306;BME280;61530;51.158;0.880;2023-05-07T00:29:26;1011.25;;;12.9375;36.8089
73306;BME280;61530;51.158;0.880;2023-05-07T00:30:31;1011.27;;;13.0;36.3166
73306;BME280;61530;51.158;0.880;2023-05-07T00:31:35;1011.27;;;13.0625;36.0661
73306;BME280;61530;51.158;0.880;2023-05-07T00:32:39;1011.26;;;13.0;35.6349
73306;BME280;61530;51.158;0.880;2023-05-07T00:33:42;1011.29;;;13.0;37.0904
73306;BME280;61530;51.158;0.880;2023-05-07T00:34:47;1011.26;;;13.0;37.1011
73306;BME280;61530;51.158;0.880;2023-05-07T00:35:51;1011.28;;;13.0;36.8836
73306;BME280;61530;51.158;0.880;2023-05-07T00:36:54;1011.29;;;12.875;38.1344
73306;BME280;61530;51.158;0.880;2023-05-07T00:37:58;1011.26;;;13.0;37.8244
73306;BME280;61530;51.158;0.880;2023-05-07T00:39:03;1011.27;;;12.8125;37.55
73306;BME280;61530;51.158;0.880;2023-05-07T00:40:08;1011.27;;;13.0;37.0615
73306;BME280;61530;51.158;0.880;2023-05-07T00:41:10;1011.26;;;12.9375;37.2698
73306;BME280;61530;51.158;0.880;2023-05-07T00:42:14;1011.29;;;12.9375;37.2527
73306;BME280;61530;51.158;0.880;2023-05-07T00:43:19;1011.29;;;12.9375;36.7155
73306;BME280;61530;51.158;0.880;2023-05-07T00:44:23;1011.28;;;13.0;36.9129
73306;BME280;61530;51.158;0.880;2023-05-07T00:45:27;1011.3;;;13.0;36.9067
73306;BME280;61530;51.158;0.880;2023-05-07T00:46:31;1011.29;;;13.0625;36.914
73306;BME280;61530;51.158;0.880;2023-05-07T00:47:36;1011.31;;;13.0;37.1407
73306;BME280;61530;51.158;0.880;2023-05-07T00:48:39;1011.31;;;13.0625;36.9307
73306;BME280;61530;51.158;0.880;2023-05-07T00:49:43;1011.32;;;13.0625;37.0241
73306;BME280;61530;51.158;0.880;2023-05-07T00:50:46;1011.31;;;13.125;36.9427
73306;BME280;61530;51.158;0.880;2023-05-07T00:51:52;1011.33;;;13.0625;36.3244
73306;BME280;61530;51.158;0.880;2023-05-07T00:52:55;1011.32;;;13.0625;36.6159
73306;BME280;61530;51.158;0.880;2023-05-07T00:54:00;1011.31;;;13.0625;36.5926
73306;BME280;61530;51.158;0.880;2023-05-07T00:55:05;1011.32;;;13.0;37.076
73306;BME280;61530;51.158;0.880;2023-05-07T00:56:07;1011.29;;;13.0;36.057
73306;BME280;61530;51.158;0.880;2023-05-07T00:57:11;1011.29;;;13.0;36.7853
73306;BME280;61530;51.158;0.880;2023-05-07T00:58:14;1011.28;;;13.0;36.4647
73306;BME280;61530;51.158;0.880;2023-05-07T00:59:18;1011.28;;;13.0;36.4399
73306;BME280;61530;51.158;0.880;2023-05-07T01:00:23;1011.28;;;13.0;36.2181
73306;BME280;61530;51.158;0.880;2023-05-07T01:01:27;1011.23;;;13.0;36.4049
73306;BME280;61530;51.158;0.880;2023-05-07T01:02:30;1011.21;;;13.0;36.7146
73306;BME280;61530;51.158;0.880;2023-05-07T01:03:34;1011.19;;;13.0;36.6154
73306;BME280;61530;51.158;0.880;2023-05-07T01:04:39;1011.18;;;13.0;36.3842
73306;BME280;61530;51.158;0.880;2023-05-07T01:05:44;1011.17;;;12.9375;36.6925
73306;BME280;61530;51.158;0.880;2023-05-07T01:06:47;1011.21;;;12.875;35.3386
73306;BME280;61530;51.158;0.880;2023-05-07T01:07:50;1011.22;;;12.875;37.0502
73306;BME280;61530;51.158;0.880;2023-05-07T01:08:55;1011.22;;;12.875;36.298
73306;BME280;61530;51.158;0.880;2023-05-07T01:09:59;1011.22;;;12.875;37.1761
73306;BME280;61530;51.158;0.880;2023-05-07T01:11:03;1011.2;;;12.875;36.2742
73306;BME280;61530;51.158;0.880;2023-05-07T01:12:07;1011.15;;;12.9375;36.57
73306;BME280;61530;51.158;0.880;2023-05-07T01:13:13;1011.14;;;12.9375;36.9662
73306;BME280;61530;51.158;0.880;2023-05-07T01:14:15;1011.11;;;12.875;36.5696
73306;BME280;61530;51.158;0.880;2023-05-07T01:15:19;1011.1;;;12.9375;36.7853
73306;BME280;61530;51.158;0.880;2023-05-07T01:16:22;1011.1;;;12.9375;36.604
73306;BME280;61530;51.158;0.880;2023-05-07T01:17:27;1011.1;;;12.875;36.3996
73306;BME280;61530;51.158;0.880;2023-05-07T01:18:31;1011.08;;;13.0625;36.1548
73306;BME280;61530;51.158;0.880;2023-05-07T01:19:34;1011.06;;;13.0625;35.1948
73306;BME280;61530;51.158;0.880;2023-05-07T01:20:38;1011.06;;;13.0;36.9846
73306;BME280;61530;51.158;0.880;2023-05-07T01:21:46;1011.03;;;12.875;36.792
73306;BME280;61530;51.158;0.880;2023-05-07T01:22:47;1011.05;;;12.875;36.6637
73306;BME280;61530;51.158;0.880;2023-05-07T01:23:50;1011.06;;;12.9375;36.5937
73306;BME280;61530;51.158;0.880;2023-05-07T01:24:54;1011.06;;;12.9375;36.6925
73306;BME280;61530;51.158;0.880;2023-05-07T01:25:59;1011.08;;;12.9375;36.9538
73306;BME280;61530;51.158;0.880;2023-05-07T01:27:03;1011.1;;;12.875;36.5575
73306;BME280;61530;51.158;0.880;2023-05-07T01:28:06;1011.1;;;12.9375;36.6158
73306;BME280;61530;51.158;0.880;2023-05-07T01:29:10;1011.13;;;12.9375;37.0135
73306;BME280;61530;51.158;0.880;2023-05-07T01:30:17;1011.13;;;12.9375;37.9859
73306;BME280;61530;51.158;0.880;2023-05-07T01:31:19;1011.14;;;12.9375;37.4109
73306;BME280;61530;51.158;0.880;2023-05-07T01:32:28;1011.12;;;12.875;36.9427
73306;BME280;61530;51.158;0.880;2023-05-07T01:33:26;1011.08;;;12.875;37.0245
73306;BME280;61530;51.158;0.880;2023-05-07T01:34:33;1011.1;;;12.9375;36.6921
73306;BME280;61530;51.158;0.880;2023-05-07T01:35:40;1011.09;;;12.9375;36.7446
73306;BME280;61530;51.158;0.880;2023-05-07T01:36:39;1011.11;;;12.9375;37.1427
73306;BME280;61530;51.158;0.880;2023-05-07T01:37:42;1011.1;;;12.875;36.9431
73306;BME280;61530;51.158;0.880;2023-05-07T01:38:48;1011.14;;;12.9375;36.8143
73306;BME280;61530;51.158;0.880;2023-05-07T01:39:51;1011.13;;;13.0;37.3869
73306;BME280;61530;51.158;0.880;2023-05-07T01:40:55;1011.16;;;12.9375;38.2212
73306;BME280;61530;51.158;0.880;2023-05-07T01:41:59;1011.18;;;12.875;37.9997
73306;BME280;61530;51.158;0.880;2023-05-07T01:43:04;1011.17;;;12.8125;37.4805
73306;BME280;61530;51.158;0.880;2023-05-07T01:44:08;1011.16;;;12.75;37.4336
73306;BME280;61530;51.158;0.880;2023-05-07T01:45:11;1011.18;;;12.875;37.6962
73306;BME280;61530;51.158;0.880;2023-05-07T01:46:15;1011.22;;;12.875;38.9706
73306;BME280;61530;51.158;0.880;2023-05-07T01:47:21;1011.24;;;12.875;38.0344
73306;BME280;61530;51.158;0.880;2023-05-07T01:48:24;1011.23;;;12.8125;38.6051
73306;BME280;61530;51.158;0.880;2023-05-07T01:49:27;1011.22;;;12.875;38.7385
73306;BME280;61530;51.158;0.880;2023-05-07T01:50:31;1011.21;;;12.9375;38.454
73306;BME280;61530;51.158;0.880;2023-05-07T01:51:36;1011.2;;;12.8125;38.9715
73306;BME280;61530;51.158;0.880;2023-05-07T01:52:39;1011.19;;;12.875;39.8429
73306;BME280;61530;51.158;0.880;2023-05-07T01:53:42;1011.2;;;12.8125;39.1227
73306;BME280;61530;51.158;0.880;2023-05-07T01:54:46;1011.22;;;12.875;39.5061
73306;BME280;61530;51.158;0.880;2023-05-07T01:55:51;1011.24;;;12.875;39.3201
73306;BME280;61530;51.158;0.880;2023-05-07T01:56:56;1011.25;;;12.75;39.5699
73306;BME280;61530;51.158;0.880;2023-05-07T01:57:58;1011.26;;;12.75;39.6337
73306;BME280;61530;51.158;0.880;2023-05-07T01:59:02;1011.25;;;12.75;38.5764
73306;BME280;61530;51.158;0.880;2023-05-07T02:00:08;1011.26;;;12.875;38.8139
73306;BME280;61530;51.158;0.880;2023-05-07T02:01:12;1011.27;;;12.8125;38.5346
73306;BME280;61530;51.158;0.880;2023-05-07T02:02:14;1011.25;;;12.875;37.9056
73306;BME280;61530;51.158;0.880;2023-05-07T02:03:18;1011.3;;;12.9375;38.3254
73306;BME280;61530;51.158;0.880;2023-05-07T02:04:23;1011.31;;;12.875;38.3252
73306;BME280;61530;51.158;0.880;2023-05-07T02:05:27;1011.29;;;12.875;38.7679
73306;BME280;61530;51.158;0.880;2023-05-07T02:06:30;1011.32;;;12.875;38.5293
73306;BME280;61530;51.158;0.880;2023-05-07T02:07:34;1011.33;;;12.875;38.465
73306;BME280;61530;51.158;0.880;2023-05-07T02:08:39;1011.35;;;12.875;38.6279
73306;BME280;61530;51.158;0.880;2023-05-07T02:09:43;1011.34;;;12.9375;38.2549
73306;BME280;61530;51.158;0.880;2023-05-07T02:10:46;1011.35;;;12.875;38.784
73306;BME280;61530;51.158;0.880;2023-05-07T02:11:50;1011.3;;;12.9375;37.1995
73306;BME280;61530;51.158;0.880;2023-05-07T02:12:55;1011.35;;;12.9375;38.5875
73306;BME280;61530;51.158;0.880;2023-05-07T02:13:59;1011.35;;;12.875;38.3896
73306;BME280;61530;51.158;0.880;2023-05-07T02:15:03;1011.34;;;12.875;38.1159
73306;BME280;61530;51.158;0.880;2023-05-07T02:16:06;1011.32;;;12.875;38.1622
73306;BME280;61530;51.158;0.880;2023-05-07T02:17:11;1011.27;;;12.875;37.9639
73306;BME280;61530;51.158;0.880;2023-05-07T02:18:16;1011.29;;;12.8125;38.1215
73306;BME280;61530;51.158;0.880;2023-05-07T02:19:18;1011.25;;;12.875;37.1138
73306;BME280;61530;51.158;0.880;2023-05-07T02:20:22;1011.24;;;12.875;37.3982
73306;BME280;61530;51.158;0.880;2023-05-07T02:21:27;1011.22;;;12.9375;37.6195
73306;BME280;61530;51.158;0.880;2023-05-07T02:22:31;1011.24;;;12.9375;38.381
73306;BME280;61530;51.158;0.880;2023-05-07T02:23:35;1011.23;;;12.9375;37.4089
73306;BME280;61530;51.158;0.880;2023-05-07T02:24:38;1011.24;;;13.0;37.2869
73306;BME280;61530;51.158;0.880;2023-05-07T02:25:43;1011.25;;;13.0;37.0119
73306;BME280;61530;51.158;0.880;2023-05-07T02:26:47;1011.25;;;12.9375;37.081
73306;BME280;61530;51.158;0.880;2023-05-07T02:27:50;1011.24;;;12.9375;35.9037
73306;BME280;61530;51.158;0.880;2023-05-07T02:28:54;1011.23;;;12.9375;36.7249
73306;BME280;61530;51.158;0.880;2023-05-07T02:30:00;1011.23;;;12.9375;36.8245
73306;BME280;61530;51.158;0.880;2023-05-07T02:31:03;1011.24;;;12.9375;36.708
73306;BME280;61530;51.158;0.880;2023-05-07T02:32:07;1011.22;;;13.0625;36.7143
73306;BME280;61530;51.158;0.880;2023-05-07T02:33:10;1011.22;;;12.9375;37.3096
73306;BME280;61530;51.158;0.880;2023-05-07T02:34:15;1011.22;;;12.875;37.2288
73306;BME280;61530;51.158;0.880;2023-05-07T02:35:19;1011.21;;;12.9375;37.3169
73306;BME280;61530;51.158;0.880;2023-05-07T02:36:23;1011.19;;;12.9375;36.7445
73306;BME280;61530;51.158;0.880;2023-05-07T02:37:26;1011.19;;;12.9375;36.9775
73306;BME280;61530;51.158;0.880;2023-05-07T02:38:31;1011.19;;;12.875;36.576
73306;BME280;61530;51.158;0.880;2023-05-07T02:39:35;1011.19;;;12.8125;35.9543
73306;BME280;61530;51.158;0.880;2023-05-07T02:40:38;1011.22;;;12.9375;37.3048
73306;BME280;61530;51.158;0.880;2023-05-07T02:41:42;1011.22;;;12.875;37.3519
73306;BME280;61530;51.158;0.880;2023-05-07T02:42:47;1011.27;;;12.8125;37.0374
73306;BME280;61530;51.158;0.880;2023-05-07T02:43:51;1011.25;;;12.875;37.3742
73306;BME280;61530;51.158;0.880;2023-05-07T02:44:54;1011.25;;;13.0;36.8726
73306;BME280;61530;51.158;0.880;2023-05-07T02:46:02;1011.27;;;12.875;36.7795
73306;BME280;61530;51.158;0.880;2023-05-07T02:47:04;1011.3;;;12.875;36.861
73306;BME280;61530;51.158;0.880;2023-05-07T02:48:07;1011.29;;;12.9375;36.8257
73306;BME280;61530;51.158;0.880;2023-05-07T02:49:10;1011.3;;;12.875;36.6387
73306;BME280;61530;51.158;0.880;2023-05-07T02:50:14;1011.33;;;12.8125;36.5338
73306;BME280;61530;51.158;0.880;2023-05-07T02:51:21;1011.3;;;12.8125;37.4185
73306;BME280;61530;51.158;0.880;2023-05-07T02:52:23;1011.31;;;12.875;35.946
73306;BME280;61530;51.158;0.880;2023-05-07T02:53:26;1011.32;;;12.875;35.8412
73306;BME280;61530;51.158;0.880;2023-05-07T02:54:30;1011.32;;;13.0;36.278
73306;BME280;61530;51.158;0.880;2023-05-07T02:55:35;1011.35;;;13.0;36.7444
73306;BME280;61530;51.158;0.880;2023-05-07T02:56:39;1011.37;;;12.9375;36.7219
73306;BME280;61530;51.158;0.880;2023-05-07T02:57:42;1011.4;;;13.0;37.026
73306;BME280;61530;51.158;0.880;2023-05-07T02:58:46;1011.37;;;12.875;36.9955
73306;BME280;61530;51.158;0.880;2023-05-07T02:59:51;1011.42;;;12.8125;36.9033
73306;BME280;61530;51.158;0.880;2023-05-07T03:00:55;1011.39;;;12.8125;37.0674
73306;BME280;61530;51.158;0.880;2023-05-07T03:01:58;1011.41;;;12.8125;37.3161
73306;BME280;61530;51.158;0.880;2023-05-07T03:03:02;1011.38;;;12.8125;36.9844
73306;BME280;61530;51.158;0.880;2023-05-07T03:04:07;1011.36;;;12.875;37.1819
73306;BME280;61530;51.158;0.880;2023-05-07T03:05:11;1011.39;;;12.8125;36.914
73306;BME280;61530;51.158;0.880;2023-05-07T03:06:14;1011.38;;;12.875;36.6397
73306;BME280;61530;51.158;0.880;2023-05-07T03:07:18;1011.39;;;12.9375;36.5106
73306;BME280;61530;51.158;0.880;2023-05-07T03:08:24;1011.38;;;12.875;36.8788
73306;BME280;61530;51.158;0.880;2023-05-07T03:09:27;1011.42;;;12.875;37.2639
73306;BME280;61530;51.158;0.880;2023-05-07T03:10:30;1011.41;;;12.9375;37.2932
73306;BME280;61530;51.158;0.880;2023-05-07T03:11:34;1011.37;;;12.875;37.3508
73306;BME280;61530;51.158;0.880;2023-05-07T03:12:39;1011.35;;;12.875;37.3448
73306;BME280;61530;51.158;0.880;2023-05-07T03:13:43;1011.3;;;13.0;37.333
73306;BME280;61530;51.158;0.880;2023-05-07T03:14:46;1011.3;;;13.0;37.1403
73306;BME280;61530;51.158;0.880;2023-05-07T03:15:50;1011.28;;;13.0;37.0645
73306;BME280;61530;51.158;0.880;2023-05-07T03:16:55;1011.26;;;13.0625;37.0651
73306;BME280;61530;51.158;0.880;2023-05-07T03:17:59;1011.25;;;12.6875;37.0124
73306;BME280;61530;51.158;0.880;2023-05-07T03:19:03;1011.27;;;12.6875;36.6107
73306;BME280;61530;51.158;0.880;2023-05-07T03:20:07;1011.31;;;12.75;37.106
73306;BME280;61530;51.158;0.880;2023-05-07T03:21:11;1011.31;;;12.75;36.8308
73306;BME280;61530;51.158;0.880;2023-05-07T03:22:15;1011.29;;;12.9375;36.6441
73306;BME280;61530;51.158;0.880;2023-05-07T03:23:18;1011.29;;;12.9375;36.6035
73306;BME280;61530;51.158;0.880;2023-05-07T03:24:22;1011.29;;;12.875;36.8594
73306;BME280;61530;51.158;0.880;2023-05-07T03:25:28;1011.31;;;12.875;36.7425
73306;BME280;61530;51.158;0.880;2023-05-07T03:26:31;1011.29;;;12.9375;36.6613
73306;BME280;61530;51.158;0.880;2023-05-07T03:27:35;1011.3;;;13.0;36.7487
73306;BME280;61530;51.158;0.880;2023-05-07T03:28:38;1011.3;;;13.0;36.5564
73306;BME280;61530;51.158;0.880;2023-05-07T03:29:43;1011.31;;;12.9375;36.6626
73306;BME280;61530;51.158;0.880;2023-05-07T03:30:47;1011.31;;;13.0;36.6802
73306;BME280;61530;51.158;0.880;2023-05-07T03:31:50;1011.32;;;12.9375;36.7854
73306;BME280;61530;51.158;0.880;2023-05-07T03:32:54;1011.28;;;12.875;36.9313
73306;BME280;61530;51.158;0.880;2023-05-07T03:33:59;1011.28;;;12.875;35.5232
73306;BME280;61530;51.158;0.880;2023-05-07T03:35:03;1011.28;;;12.875;37.2644
73306;BME280;61530;51.158;0.880;2023-05-07T03:36:07;1011.28;;;12.875;37.1253
73306;BME280;61530;51.158;0.880;2023-05-07T03:37:10;1011.31;;;12.8125;36.7994
73306;BME280;61530;51.158;0.880;2023-05-07T03:38:15;1011.32;;;12.8125;37.0493
73306;BME280;61530;51.158;0.880;2023-05-07T03:39:19;1011.33;;;12.875;37.1419
73306;BME280;61530;51.158;0.880;2023-05-07T03:40:22;1011.3;;;12.8125;37.0946
73306;BME280;61530;51.158;0.880;2023-05-07T03:41:26;1011.31;;;12.8125;36.5769
73306;BME280;61530;51.158;0.880;2023-05-07T03:42:31;1011.3;;;12.8125;36.82
73306;BME280;61530;51.158;0.880;2023-05-07T03:43:35;1011.28;;;12.75;36.8313
73306;BME280;61530;51.158;0.880;2023-05-07T03:44:38;1011.31;;;12.75;36.4754
73306;BME280;61530;51.158;0.880;2023-05-07T03:45:42;1011.3;;;12.75;36.2134
73306;BME280;61530;51.158;0.880;2023-05-07T03:46:47;1011.29;;;12.8125;36.726
73306;BME280;61530;51.158;0.880;2023-05-07T03:47:51;1011.28;;;12.875;37.0712
73306;BME280;61530;51.158;0.880;2023-05-07T03:48:54;1011.3;;;12.75;37.3615
73306;BME280;61530;51.158;0.880;2023-05-07T03:49:58;1011.27;;;12.8125;36.943
73306;BME280;61530;51.158;0.880;2023-05-07T03:51:04;1011.25;;;12.875;37.2578
73306;BME280;61530;51.158;0.880;2023-05-07T03:52:07;1011.29;;;12.75;38.0516
73306;BME280;61530;51.158;0.880;2023-05-07T03:53:10;1011.27;;;12.875;37.4329
73306;BME280;61530;51.158;0.880;2023-05-07T03:54:14;1011.24;;;12.875;37.0949
73306;BME280;61530;51.158;0.880;2023-05-07T03:55:20;1011.28;;;12.875;38.4017
73306;BME280;61530;51.158;0.880;2023-05-07T03:56:23;1011.31;;;12.875;38.5063
73306;BME280;61530;51.158;0.880;2023-05-07T03:57:26;1011.33;;;12.8125;38.9474
73306;BME280;61530;51.158;0.880;2023-05-07T03:58:30;1011.34;;;12.8125;38.3089
73306;BME280;61530;51.158;0.880;2023-05-07T03:59:35;1011.37;;;12.8125;39.4192
73306;BME280;61530;51.158;0.880;2023-05-07T04:00:39;1011.36;;;12.8125;38.7502
73306;BME280;61530;51.158;0.880;2023-05-07T04:01:42;1011.37;;;12.75;38.348
73306;BME280;61530;51.158;0.880;2023-05-07T04:02:46;1011.37;;;12.8125;37.9519
73306;BME280;61530;51.158;0.880;2023-05-07T04:03:52;1011.37;;;12.6875;37.5904
73306;BME280;61530;51.158;0.880;2023-05-07T04:04:55;1011.34;;;12.8125;37.8707
73306;BME280;61530;51.158;0.880;2023-05-07T04:05:58;1011.37;;;12.875;37.3627
73306;BME280;61530;51.158;0.880;2023-05-07T04:07:02;1011.34;;;12.8125;37.2462
73306;BME280;61530;51.158;0.880;2023-05-07T04:08:07;1011.36;;;12.9375;37.3043
73306;BME280;61530;51.158;0.880;2023-05-07T04:09:11;1011.42;;;12.75;38.8206
73306;BME280;61530;51.158;0.880;2023-05-07T04:10:14;1011.45;;;12.8125;40.8106
73306;BME280;61530;51.158;0.880;2023-05-07T04:11:18;1011.46;;;12.75;40.7759
73306;BME280;61530;51.158;0.880;2023-05-07T04:12:23;1011.46;;;12.75;39.9005
73306;BME280;61530;51.158;0.880;2023-05-07T04:13:27;1011.46;;;12.8125;39.0295
73306;BME280;61530;51.158;0.880;2023-05-07T04:14:30;1011.45;;;12.8125;39.2089
73306;BME280;61530;51.158;0.880;2023-05-07T04:15:35;1011.45;;;12.8125;37.7965
73306;BME280;61530;51.158;0.880;2023-05-07T04:16:39;1011.47;;;12.875;37.9698
73306;BME280;61530;51.158;0.880;2023-05-07T04:17:43;1011.48;;;12.75;38.8946
73306;BME280;61530;51.158;0.880;2023-05-07T04:18:46;1011.47;;;12.875;36.9742
73306;BME280;61530;51.158;0.880;2023-05-07T04:19:50;1011.49;;;12.9375;38.3522
73306;BME280;61530;51.158;0.880;2023-05-07T04:20:55;1011.54;;;12.875;37.79
73306;BME280;61530;51.158;0.880;2023-05-07T04:21:59;1011.52;;;12.875;37.9802
73306;BME280;61530;51.158;0.880;2023-05-07T04:23:02;1011.55;;;12.9375;37.7947
73306;BME280;61530;51.158;0.880;2023-05-07T04:24:06;1011.51;;;12.9375;37.8408
73306;BME280;61530;51.158;0.880;2023-05-07T04:25:11;1011.53;;;12.9375;37.072
73306;BME280;61530;51.158;0.880;2023-05-07T04:26:15;1011.53;;;12.9375;36.8733
73306;BME280;61530;51.158;0.880;2023-05-07T04:27:18;1011.54;;;12.9375;37.4087
73306;BME280;61530;51.158;0.880;2023-05-07T04:28:22;1011.55;;;12.9375;37.1768
73306;BME280;61530;51.158;0.880;2023-05-07T04:29:27;1011.57;;;12.9375;36.9488
73306;BME280;61530;51.158;0.880;2023-05-07T04:30:31;1011.56;;;12.9375;37.4616
73306;BME280;61530;51.158;0.880;2023-05-07T04:31:34;1011.56;;;12.9375;37.3794
73306;BME280;61530;51.158;0.880;2023-05-07T04:32:38;1011.58;;;12.875;37.4551
73306;BME280;61530;51.158;0.880;2023-05-07T04:33:43;1011.57;;;13.0;37.0649
73306;BME280;61530;51.158;0.880;2023-05-07T04:34:47;1011.56;;;13.0;37.338
73306;BME280;61530;51.158;0.880;2023-05-07T04:35:50;1011.59;;;13.0;37.0935
73306;BME280;61530;51.158;0.880;2023-05-07T04:36:57;1011.57;;;12.9375;36.5575
73306;BME280;61530;51.158;0.880;2023-05-07T04:37:59;1011.64;;;13.0;36.9783
73306;BME280;61530;51.158;0.880;2023-05-07T04:39:03;1011.63;;;12.8125;37.7002
73306;BME280;61530;51.158;0.880;2023-05-07T04:40:07;1011.64;;;12.9375;37.2107
73306;BME280;61530;51.158;0.880;2023-05-07T04:41:12;1011.68;;;12.875;37.0532
73306;BME280;61530;51.158;0.880;2023-05-07T04:42:15;1011.65;;;12.9375;37.3439
73306;BME280;61530;51.158;0.880;2023-05-07T04:43:19;1011.65;;;12.875;37.3272
73306;BME280;61530;51.158;0.880;2023-05-07T04:44:22;1011.69;;;12.9375;37.4439
73306;BME280;61530;51.158;0.880;2023-05-07T04:45:26;1011.68;;;12.875;37.2218
73306;BME280;61530;51.158;0.880;2023-05-07T04:46:31;1011.66;;;12.9375;37.3027
73306;BME280;61530;51.158;0.880;2023-05-07T04:47:35;1011.65;;;13.0;36.9932
73306;BME280;61530;51.158;0.880;2023-05-07T04:48:38;1011.65;;;13.0625;36.0442
73306;BME280;61530;51.158;0.880;2023-05-07T04:49:42;1011.64;;;13.0625;37.3027
73306;BME280;61530;51.158;0.880;2023-05-07T04:50:48;1011.65;;;13.0625;36.9352
73306;BME280;61530;51.158;0.880;2023-05-07T04:51:51;1011.68;;;13.0625;37.099
73306;BME280;61530;51.158;0.880;2023-05-07T04:52:54;1011.67;;;13.125;37.1223
73306;BME280;61530;51.158;0.880;2023-05-07T04:53:58;1011.69;;;13.125;37.3721
73306;BME280;61530;51.158;0.880;2023-05-07T04:55:04;1011.67;;;13.125;36.9573
73306;BME280;61530;51.158;0.880;2023-05-07T04:56:07;1011.71;;;13.125;37.1727
73306;BME280;61530;51.158;0.880;2023-05-07T04:57:10;1011.7;;;13.125;36.8343
73306;BME280;61530;51.158;0.880;2023-05-07T04:58:14;1011.73;;;13.125;36.8808
73306;BME280;61530;51.158;0.880;2023-05-07T04:59:19;1011.75;;;13.0625;36.5134
73306;BME280;61530;51.158;0.880;2023-05-07T05:00:23;1011.77;;;13.1875;36.1137
73306;BME280;61530;51.158;0.880;2023-05-07T05:01:28;1011.79;;;13.1875;37.121
73306;BME280;61530;51.158;0.880;2023-05-07T05:02:30;1011.81;;;13.125;37.2206
73306;BME280;61530;51.158;0.880;2023-05-07T05:03:36;1011.81;;;13.1875;37.5182
73306;BME280;61530;51.158;0.880;2023-05-07T05:04:39;1011.79;;;13.1875;38.2944
73306;BME280;61530;51.158;0.880;2023-05-07T05:05:43;1011.79;;;13.1875;38.3523
73306;BME280;61530;51.158;0.880;2023-05-07T05:06:46;1011.78;;;13.125;38.836
73306;BME280;61530;51.158;0.880;2023-05-07T05:07:51;1011.77;;;13.0625;38.4513
73306;BME280;61530;51.158;0.880;2023-05-07T05:08:55;1011.77;;;13.1875;38.3055
73306;BME280;61530;51.158;0.880;2023-05-07T05:09:59;1011.74;;;13.1875;37.9082
73306;BME280;61530;51.158;0.880;2023-05-07T05:11:03;1011.75;;;13.1875;37.4765
73306;BME280;61530;51.158;0.880;2023-05-07T05:12:07;1011.74;;;13.1875;37.4935
73306;BME280;61530;51.158;0.880;2023-05-07T05:13:11;1011.73;;;13.1875;38.0583
73306;BME280;61530;51.158;0.880;2023-05-07T05:14:14;1011.74;;;13.1875;37.6042
73306;BME280;61530;51.158;0.880;2023-05-07T05:15:18;1011.78;;;13.1875;37.5287
73306;BME280;61530;51.158;0.880;2023-05-07T05:16:23;1011.78;;;13.3125;37.074
73306;BME280;61530;51.158;0.880;2023-05-07T05:17:27;1011.78;;;13.25;37.2256
73306;BME280;61530;51.158;0.880;2023-05-07T05:18:30;1011.78;;;13.25;36.9103
73306;BME280;61530;51.158;0.880;2023-05-07T05:19:34;1011.8;;;13.25;36.8117
73306;BME280;61530;51.158;0.880;2023-05-07T05:20:39;1011.83;;;13.3125;36.6709
73306;BME280;61530;51.158;0.880;2023-05-07T05:21:43;1011.86;;;13.25;37.307
73306;BME280;61530;51.158;0.880;2023-05-07T05:22:46;1011.88;;;13.3125;37.3065
73306;BME280;61530;51.158;0.880;2023-05-07T05:23:50;1011.9;;;13.3125;37.6968
73306;BME280;61530;51.158;0.880;2023-05-07T05:24:55;1011.91;;;13.25;37.4409
73306;BME280;61530;51.158;0.880;2023-05-07T05:25:59;1011.91;;;13.3125;37.0324
73306;BME280;61530;51.158;0.880;2023-05-07T05:27:03;1011.92;;;13.3125;37.3819
73306;BME280;61530;51.158;0.880;2023-05-07T05:28:06;1011.94;;;13.375;37.0606
73306;BME280;61530;51.158;0.880;2023-05-07T05:29:11;1011.97;;;13.25;37.8211
73306;BME280;61530;51.158;0.880;2023-05-07T05:30:15;1011.94;;;13.3125;37.7087